sensor_id;sensor_type;location;lat;lon;timestamp;pressure;altitude;pressure_sealevel;temperature;humidity
22830;BME280;11581;51.250;6.778;2023-01-31T00:01:08;102086.44;;;8.00;65.79
22830;BME280;11581;51.250;6.778;2023-01-31T00:03:35;102092.53;;;8.02;66.42
22830;BME280;11581;51.250;6.778;2023-01-31T00:06:14;102071.66;;;7.96;65.71
22830;BME280;11581;51.250;6.778;2023-01-31T00:08:43;102083.78;;;8.00;66.13
22830;BME280;11581;51.250;6.778;2023-01-31T00:11:11;102082.75;;;8.02;66.37
22830;BME280;11581;51.250;6.778;2023-01-31T00:13:38;102089.28;;;8.11;66.22
22830;BME280;11581;51.250;6.778;2023-01-31T00:16:05;102091.75;;;8.14;66.08
22830;BME280;11581;51.250;6.778;2023-01-31T00:18:32;102079.78;;;8.07;65.77
22830;BME280;11581;51.250;6.778;2023-01-31T00:21:07;102101.31;;;8.16;65.14
22830;BME280;11581;51.250;6.778;2023-01-31T00:23:34;102055.72;;;7.96;65.69
22830;BME280;11581;51.250;6.778;2023-01-31T00:26:11;102094.94;;;8.19;65.03
22830;BME280;11581;51.250;6.778;2023-01-31T00:28:38;102091.84;;;8.12;65.57
22830;BME280;11581;51.250;6.778;2023-01-31T00:31:05;102105.56;;;8.19;65.41
22830;BME280;11581;51.250;6.778;2023-01-31T00:33:32;102101.13;;;8.19;65.43
22830;BME280;11581;51.250;6.778;2023-01-31T00:36:02;102112.13;;;8.13;65.00
22830;BME280;11581;51.250;6.778;2023-01-31T00:38:29;102098.56;;;8.18;65.31
22830;BME280;11581;51.250;6.778;2023-01-31T00:40:56;102087.47;;;8.11;65.31
22830;BME280;11581;51.250;6.778;2023-01-31T00:43:24;102116.69;;;8.11;64.90
22830;BME280;11581;51.250;6.778;2023-01-31T00:45:51;102093.44;;;8.15;65.17
22830;BME280;11581;51.250;6.778;2023-01-31T00:48:18;102096.19;;;8.13;65.25
22830;BME280;11581;51.250;6.778;2023-01-31T00:50:45;102106.16;;;8.10;65.04
22830;BME280;11581;51.250;6.778;2023-01-31T00:53:12;102093.50;;;8.01;64.60
22830;BME280;11581;51.250;6.778;2023-01-31T00:55:39;102100.41;;;8.03;64.84
22830;BME280;11581;51.250;6.778;2023-01-31T00:58:05;102098.03;;;7.99;64.57
22830;BME280;11581;51.250;6.778;2023-01-31T01:00:33;102061.28;;;7.65;64.44
22830;BME280;11581;51.250;6.778;2023-01-31T01:03:00;102112.09;;;7.87;64.50
22830;BME280;11581;51.250;6.778;2023-01-31T01:05:27;102102.81;;;7.80;64.42
22830;BME280;11581;51.250;6.778;2023-01-31T01:07:54;102105.75;;;7.75;64.94
22830;BME280;11581;51.250;6.778;2023-01-31T01:10:22;102112.31;;;7.70;65.02
22830;BME280;11581;51.250;6.778;2023-01-31T01:12:49;102097.16;;;7.58;65.26
22830;BME280;11581;51.250;6.778;2023-01-31T01:15:16;102106.53;;;7.63;65.67
22830;BME280;11581;51.250;6.778;2023-01-31T01:17:44;102102.28;;;7.61;65.69
22830;BME280;11581;51.250;6.778;2023-01-31T01:20:11;101912.13;;;6.49;65.52
22830;BME280;11581;51.250;6.778;2023-01-31T01:22:38;102098.00;;;7.58;65.79
22830;BME280;11581;51.250;6.778;2023-01-31T01:25:05;102098.97;;;7.57;65.62
22830;BME280;11581;51.250;6.778;2023-01-31T01:27:34;102095.84;;;7.51;65.60
22830;BME280;11581;51.250;6.778;2023-01-31T01:30:01;102068.72;;;7.32;65.60
22830;BME280;11581;51.250;6.778;2023-01-31T01:32:28;102102.66;;;7.55;65.72
22830;BME280;11581;51.250;6.778;2023-01-31T01:34:56;102100.09;;;7.53;65.62
22830;BME280;11581;51.250;6.778;2023-01-31T01:37:23;102087.78;;;7.52;65.81
22830;BME280;11581;51.250;6.778;2023-01-31T01:39:50;102106.47;;;7.51;65.58
22830;BME280;11581;51.250;6.778;2023-01-31T01:42:20;102090.72;;;7.48;65.45
22830;BME280;11581;51.250;6.778;2023-01-31T01:44:49;102084.00;;;7.42;65.93
22830;BME280;11581;51.250;6.778;2023-01-31T01:47:33;102084.09;;;7.41;65.25
22830;BME280;11581;51.250;6.778;2023-01-31T01:50:07;102095.28;;;7.46;65.49
22830;BME280;11581;51.250;6.778;2023-01-31T01:52:38;102085.59;;;7.45;65.77
22830;BME280;11581;51.250;6.778;2023-01-31T01:55:20;102089.22;;;7.44;65.67
22830;BME280;11581;51.250;6.778;2023-01-31T01:57:49;102086.66;;;7.42;65.69
22830;BME280;11581;51.250;6.778;2023-01-31T02:00:20;102024.75;;;7.00;65.76
22830;BME280;11581;51.250;6.778;2023-01-31T02:02:51;102082.38;;;7.40;65.36
22830;BME280;11581;51.250;6.778;2023-01-31T02:05:30;102056.88;;;7.23;65.42
22830;BME280;11581;51.250;6.778;2023-01-31T02:07:58;102090.53;;;7.37;65.42
22830;BME280;11581;51.250;6.778;2023-01-31T02:10:27;102091.69;;;7.33;65.43
22830;BME280;11581;51.250;6.778;2023-01-31T02:12:55;102092.63;;;7.32;65.63
22830;BME280;11581;51.250;6.778;2023-01-31T02:15:22;102091.88;;;7.30;65.99
22830;BME280;11581;51.250;6.778;2023-01-31T02:17:50;102091.88;;;7.30;66.33
22830;BME280;11581;51.250;6.778;2023-01-31T02:23:42;102090.81;;;7.32;65.92
22830;BME280;11581;51.250;6.778;2023-01-31T02:26:56;102096.13;;;7.32;65.89
22830;BME280;11581;51.250;6.778;2023-01-31T02:29:52;102075.56;;;7.22;65.32
22830;BME280;11581;51.250;6.778;2023-01-31T02:32:41;102093.66;;;7.29;65.41
22830;BME280;11581;51.250;6.778;2023-01-31T02:35:19;102097.38;;;7.27;65.21
22830;BME280;11581;51.250;6.778;2023-01-31T02:38:04;102075.38;;;7.11;65.57
22830;BME280;11581;51.250;6.778;2023-01-31T02:40:35;102098.66;;;7.20;65.58
22830;BME280;11581;51.250;6.778;2023-01-31T02:43:08;102098.78;;;7.18;65.34
22830;BME280;11581;51.250;6.778;2023-01-31T02:45:40;102098.28;;;7.12;65.78
22830;BME280;11581;51.250;6.778;2023-01-31T02:48:18;102034.75;;;6.66;65.56
22830;BME280;11581;51.250;6.778;2023-01-31T02:50:57;102103.41;;;7.01;65.81
22830;BME280;11581;51.250;6.778;2023-01-31T02:53:30;102095.22;;;6.89;66.04
22830;BME280;11581;51.250;6.778;2023-01-31T02:56:02;102101.31;;;6.92;65.89
22830;BME280;11581;51.250;6.778;2023-01-31T02:58:49;102032.34;;;6.48;66.13
22830;BME280;11581;51.250;6.778;2023-01-31T03:01:23;102085.16;;;6.80;66.60
22830;BME280;11581;51.250;6.778;2023-01-31T03:03:56;102095.50;;;6.85;66.76
22830;BME280;11581;51.250;6.778;2023-01-31T03:06:47;102094.75;;;6.83;66.47
22830;BME280;11581;51.250;6.778;2023-01-31T03:09:23;102089.53;;;6.81;66.86
22830;BME280;11581;51.250;6.778;2023-01-31T03:12:19;102080.13;;;6.76;66.68
22830;BME280;11581;51.250;6.778;2023-01-31T03:15:00;102077.56;;;6.74;66.79
22830;BME280;11581;51.250;6.778;2023-01-31T03:17:36;102067.91;;;6.73;66.51
22830;BME280;11581;51.250;6.778;2023-01-31T03:20:10;102070.38;;;6.76;66.67
22830;BME280;11581;51.250;6.778;2023-01-31T03:22:42;102068.69;;;6.75;66.91
22830;BME280;11581;51.250;6.778;2023-01-31T03:25:12;102072.25;;;6.74;67.08
22830;BME280;11581;51.250;6.778;2023-01-31T03:27:45;102059.22;;;6.71;66.73
22830;BME280;11581;51.250;6.778;2023-01-31T03:30:20;102058.25;;;6.72;66.82
22830;BME280;11581;51.250;6.778;2023-01-31T03:32:51;102059.22;;;6.71;66.56
22830;BME280;11581;51.250;6.778;2023-01-31T03:35:22;102056.75;;;6.68;66.93
22830;BME280;11581;51.250;6.778;2023-01-31T03:37:54;102050.94;;;6.62;66.92
22830;BME280;11581;51.250;6.778;2023-01-31T03:40:25;102052.63;;;6.63;66.80
22830;BME280;11581;51.250;6.778;2023-01-31T03:42:58;102058.13;;;6.60;66.77
22830;BME280;11581;51.250;6.778;2023-01-31T03:45:33;102053.19;;;6.54;66.71
22830;BME280;11581;51.250;6.778;2023-01-31T03:48:02;102054.22;;;6.51;66.87
22830;BME280;11581;51.250;6.778;2023-01-31T03:50:38;102052.69;;;6.47;66.92
22830;BME280;11581;51.250;6.778;2023-01-31T03:53:09;102047.94;;;6.38;67.19
22830;BME280;11581;51.250;6.778;2023-01-31T03:55:41;102054.97;;;6.39;67.07
22830;BME280;11581;51.250;6.778;2023-01-31T03:58:09;102044.13;;;6.28;67.38
22830;BME280;11581;51.250;6.778;2023-01-31T04:00:41;102023.81;;;6.13;67.29
22830;BME280;11581;51.250;6.778;2023-01-31T04:03:12;102052.16;;;6.27;67.85
22830;BME280;11581;51.250;6.778;2023-01-31T04:05:41;102052.41;;;6.22;68.00
22830;BME280;11581;51.250;6.778;2023-01-31T04:08:08;101980.56;;;5.83;67.66
22830;BME280;11581;51.250;6.778;2023-01-31T04:10:35;102041.25;;;6.17;68.16
22830;BME280;11581;51.250;6.778;2023-01-31T04:13:02;102036.13;;;6.14;68.26
22830;BME280;11581;51.250;6.778;2023-01-31T04:15:29;102040.66;;;6.12;68.29
22830;BME280;11581;51.250;6.778;2023-01-31T04:17:55;102033.66;;;6.11;68.48
22830;BME280;11581;51.250;6.778;2023-01-31T04:20:22;102036.38;;;6.10;68.49
22830;BME280;11581;51.250;6.778;2023-01-31T04:22:50;102024.09;;;6.09;68.80
22830;BME280;11581;51.250;6.778;2023-01-31T04:25:17;102006.44;;;5.94;68.82
22830;BME280;11581;51.250;6.778;2023-01-31T04:27:43;102028.53;;;6.08;69.35
22830;BME280;11581;51.250;6.778;2023-01-31T04:30:11;102027.56;;;6.09;69.30
22830;BME280;11581;51.250;6.778;2023-01-31T04:32:37;102029.22;;;6.12;69.86
22830;BME280;11581;51.250;6.778;2023-01-31T04:35:04;102022.88;;;6.14;69.69
22830;BME280;11581;51.250;6.778;2023-01-31T04:37:31;102024.41;;;6.18;69.91
22830;BME280;11581;51.250;6.778;2023-01-31T04:39:59;102032.94;;;6.23;70.34
22830;BME280;11581;51.250;6.778;2023-01-31T04:42:26;102030.88;;;6.28;70.10
22830;BME280;11581;51.250;6.778;2023-01-31T04:44:52;102032.38;;;6.32;70.48
22830;BME280;11581;51.250;6.778;2023-01-31T04:47:19;101990.22;;;6.14;70.36
22830;BME280;11581;51.250;6.778;2023-01-31T04:49:46;102029.97;;;6.43;70.27
22830;BME280;11581;51.250;6.778;2023-01-31T04:52:12;102023.53;;;6.47;70.38
22830;BME280;11581;51.250;6.778;2023-01-31T04:54:39;102016.28;;;6.51;70.13
22830;BME280;11581;51.250;6.778;2023-01-31T04:57:07;102024.88;;;6.54;70.20
22830;BME280;11581;51.250;6.778;2023-01-31T04:59:34;102022.91;;;6.58;70.05
22830;BME280;11581;51.250;6.778;2023-01-31T05:02:00;102010.69;;;6.55;69.67
22830;BME280;11581;51.250;6.778;2023-01-31T05:04:27;102018.06;;;6.64;69.71
22830;BME280;11581;51.250;6.778;2023-01-31T05:06:53;101997.44;;;6.55;69.93
22830;BME280;11581;51.250;6.778;2023-01-31T05:09:20;101987.94;;;6.51;69.88
22830;BME280;11581;51.250;6.778;2023-01-31T05:11:47;101998.78;;;6.62;69.65
22830;BME280;11581;51.250;6.778;2023-01-31T05:14:15;102000.78;;;6.73;70.00
22830;BME280;11581;51.250;6.778;2023-01-31T05:16:42;102005.88;;;6.76;69.74
22830;BME280;11581;51.250;6.778;2023-01-31T05:19:11;102005.69;;;6.79;69.59
22830;BME280;11581;51.250;6.778;2023-01-31T05:21:38;101995.94;;;6.79;69.72
22830;BME280;11581;51.250;6.778;2023-01-31T05:24:18;101997.47;;;6.83;69.82
22830;BME280;11581;51.250;6.778;2023-01-31T05:26:45;101998.22;;;6.85;69.51
22830;BME280;11581;51.250;6.778;2023-01-31T05:29:16;102000.69;;;6.88;69.81
22830;BME280;11581;51.250;6.778;2023-01-31T05:31:42;101996.25;;;6.89;69.39
22830;BME280;11581;51.250;6.778;2023-01-31T05:34:13;102005.81;;;6.92;69.77
22830;BME280;11581;51.250;6.778;2023-01-31T05:36:40;101998.59;;;6.93;69.51
22830;BME280;11581;51.250;6.778;2023-01-31T05:39:07;102002.03;;;6.96;69.69
22830;BME280;11581;51.250;6.778;2023-01-31T05:41:34;101994.84;;;6.98;69.61
22830;BME280;11581;51.250;6.778;2023-01-31T05:44:00;101996.53;;;6.99;69.72
22830;BME280;11581;51.250;6.778;2023-01-31T05:46:28;101985.81;;;7.00;69.42
22830;BME280;11581;51.250;6.778;2023-01-31T05:48:55;101984.78;;;7.03;69.60
22830;BME280;11581;51.250;6.778;2023-01-31T05:51:21;101982.03;;;7.04;69.20
22830;BME280;11581;51.250;6.778;2023-01-31T05:53:48;101973.44;;;7.01;69.23
22830;BME280;11581;51.250;6.778;2023-01-31T05:56:16;101980.03;;;7.08;69.12
22830;BME280;11581;51.250;6.778;2023-01-31T05:58:42;101968.47;;;7.09;68.96
22830;BME280;11581;51.250;6.778;2023-01-31T06:01:12;101968.47;;;7.09;69.01
22830;BME280;11581;51.250;6.778;2023-01-31T06:03:40;101968.47;;;7.09;68.76
22830;BME280;11581;51.250;6.778;2023-01-31T06:06:07;101947.81;;;7.00;69.17
22830;BME280;11581;51.250;6.778;2023-01-31T06:08:33;101817.19;;;6.27;68.66
22830;BME280;11581;51.250;6.778;2023-01-31T06:11:00;101950.56;;;7.12;68.91
22830;BME280;11581;51.250;6.778;2023-01-31T06:13:27;101951.41;;;7.13;69.18
22830;BME280;11581;51.250;6.778;2023-01-31T06:15:53;101941.56;;;7.15;68.97
22830;BME280;11581;51.250;6.778;2023-01-31T06:18:20;101929.72;;;7.06;69.22
22830;BME280;11581;51.250;6.778;2023-01-31T06:20:48;101927.00;;;7.08;68.98
22830;BME280;11581;51.250;6.778;2023-01-31T06:23:14;101950.06;;;7.20;68.92
22830;BME280;11581;51.250;6.778;2023-01-31T06:25:41;101946.50;;;7.21;68.85
22830;BME280;11581;51.250;6.778;2023-01-31T06:28:08;101942.00;;;7.21;68.89
22830;BME280;11581;51.250;6.778;2023-01-31T06:30:34;101954.25;;;7.24;69.11
22830;BME280;11581;51.250;6.778;2023-01-31T06:33:01;101962.13;;;7.25;68.97
22830;BME280;11581;51.250;6.778;2023-01-31T06:35:28;101962.75;;;7.29;69.08
22830;BME280;11581;51.250;6.778;2023-01-31T06:37:59;101961.81;;;7.30;68.90
22830;BME280;11581;51.250;6.778;2023-01-31T06:40:26;101969.59;;;7.33;68.82
22830;BME280;11581;51.250;6.778;2023-01-31T06:42:52;101971.09;;;7.37;68.95
22830;BME280;11581;51.250;6.778;2023-01-31T06:45:19;101969.19;;;7.39;68.60
22830;BME280;11581;51.250;6.778;2023-01-31T06:47:45;101971.63;;;7.42;68.64
22830;BME280;11581;51.250;6.778;2023-01-31T06:50:12;101950.06;;;7.34;68.84
22830;BME280;11581;51.250;6.778;2023-01-31T06:52:39;101955.91;;;7.39;68.80
22830;BME280;11581;51.250;6.778;2023-01-31T06:55:08;101965.41;;;7.43;68.52
22830;BME280;11581;51.250;6.778;2023-01-31T06:57:35;101973.72;;;7.51;68.28
22830;BME280;11581;51.250;6.778;2023-01-31T07:00:03;101972.66;;;7.53;68.51
22830;BME280;11581;51.250;6.778;2023-01-31T07:02:30;101977.03;;;7.54;68.16
22830;BME280;11581;51.250;6.778;2023-01-31T07:04:57;101978.63;;;7.57;67.99
22830;BME280;11581;51.250;6.778;2023-01-31T07:07:23;101916.25;;;7.23;68.14
22830;BME280;11581;51.250;6.778;2023-01-31T07:09:50;101973.22;;;7.58;67.99
22830;BME280;11581;51.250;6.778;2023-01-31T07:12:18;101978.44;;;7.60;67.73
22830;BME280;11581;51.250;6.778;2023-01-31T07:14:44;101978.44;;;7.60;67.88
22830;BME280;11581;51.250;6.778;2023-01-31T07:17:11;101975.69;;;7.61;67.67
22830;BME280;11581;51.250;6.778;2023-01-31T07:19:37;101972.94;;;7.63;67.65
22830;BME280;11581;51.250;6.778;2023-01-31T07:22:04;101969.31;;;7.64;67.72
22830;BME280;11581;51.250;6.778;2023-01-31T07:24:30;101959.94;;;7.58;67.47
22830;BME280;11581;51.250;6.778;2023-01-31T07:26:57;101941.66;;;7.54;67.25
22830;BME280;11581;51.250;6.778;2023-01-31T07:29:26;101948.94;;;7.64;67.29
22830;BME280;11581;51.250;6.778;2023-01-31T07:31:53;101940.88;;;7.66;67.41
22830;BME280;11581;51.250;6.778;2023-01-31T07:34:20;101943.63;;;7.64;67.24
22830;BME280;11581;51.250;6.778;2023-01-31T07:36:47;101942.75;;;7.64;67.63
22830;BME280;11581;51.250;6.778;2023-01-31T07:39:14;101944.88;;;7.59;67.43
22830;BME280;11581;51.250;6.778;2023-01-31T07:41:41;101944.00;;;7.58;67.55
22830;BME280;11581;51.250;6.778;2023-01-31T07:44:08;101956.69;;;7.67;67.64
22830;BME280;11581;51.250;6.778;2023-01-31T07:46:38;101927.22;;;7.58;67.63
22830;BME280;11581;51.250;6.778;2023-01-31T07:49:05;101944.72;;;7.74;67.68
22830;BME280;11581;51.250;6.778;2023-01-31T07:51:32;101946.13;;;7.80;67.99
22830;BME280;11581;51.250;6.778;2023-01-31T07:54:00;101944.03;;;7.85;67.82
22830;BME280;11581;51.250;6.778;2023-01-31T07:56:27;101950.63;;;7.92;68.08
22830;BME280;11581;51.250;6.778;2023-01-31T07:58:53;101950.94;;;8.00;68.13
22830;BME280;11581;51.250;6.778;2023-01-31T08:01:21;101946.91;;;8.07;67.79
22830;BME280;11581;51.250;6.778;2023-01-31T08:04:09;101913.44;;;7.92;67.07
22830;BME280;11581;51.250;6.778;2023-01-31T08:06:37;101945.94;;;8.22;66.97
22830;BME280;11581;51.250;6.778;2023-01-31T08:09:04;101936.78;;;8.26;67.13
22830;BME280;11581;51.250;6.778;2023-01-31T08:11:31;101947.22;;;8.29;66.84
22830;BME280;11581;51.250;6.778;2023-01-31T08:13:57;101933.72;;;8.32;66.88
22830;BME280;11581;51.250;6.778;2023-01-31T08:16:24;101907.00;;;8.21;66.24
22830;BME280;11581;51.250;6.778;2023-01-31T08:18:52;101930.63;;;8.38;66.39
22830;BME280;11581;51.250;6.778;2023-01-31T08:21:20;101922.66;;;8.38;65.92
22830;BME280;11581;51.250;6.778;2023-01-31T08:23:46;101903.28;;;8.36;65.96
22830;BME280;11581;51.250;6.778;2023-01-31T08:26:14;101886.81;;;8.18;66.01
22830;BME280;11581;51.250;6.778;2023-01-31T08:28:41;101913.63;;;8.40;65.98
22830;BME280;11581;51.250;6.778;2023-01-31T08:31:11;101907.38;;;8.41;65.35
22830;BME280;11581;51.250;6.778;2023-01-31T08:33:38;101890.88;;;8.36;65.74
22830;BME280;11581;51.250;6.778;2023-01-31T08:36:07;101923.63;;;8.37;65.73
22830;BME280;11581;51.250;6.778;2023-01-31T08:38:35;101908.31;;;8.40;65.84
22830;BME280;11581;51.250;6.778;2023-01-31T08:41:02;101902.16;;;8.40;65.92
22830;BME280;11581;51.250;6.778;2023-01-31T08:43:29;101898.94;;;8.35;65.75
22830;BME280;11581;51.250;6.778;2023-01-31T08:45:57;101919.03;;;8.39;66.11
22830;BME280;11581;51.250;6.778;2023-01-31T08:48:23;101918.09;;;8.40;65.92
22830;BME280;11581;51.250;6.778;2023-01-31T08:50:50;101902.56;;;8.34;65.85
22830;BME280;11581;51.250;6.778;2023-01-31T08:53:16;101913.63;;;8.40;66.13
22830;BME280;11581;51.250;6.778;2023-01-31T08:55:44;101909.16;;;8.41;66.21
22830;BME280;11581;51.250;6.778;2023-01-31T08:58:11;101893.22;;;8.41;66.15
22830;BME280;11581;51.250;6.778;2023-01-31T09:00:37;101894.19;;;8.40;66.67
22830;BME280;11581;51.250;6.778;2023-01-31T09:03:04;101891.63;;;8.38;66.68
22830;BME280;11581;51.250;6.778;2023-01-31T09:05:31;101889.06;;;8.37;66.88
22830;BME280;11581;51.250;6.778;2023-01-31T09:07:58;101885.56;;;8.36;67.19
22830;BME280;11581;51.250;6.778;2023-01-31T09:10:24;101877.69;;;8.35;67.42
22830;BME280;11581;51.250;6.778;2023-01-31T09:12:52;101868.00;;;8.34;67.16
22830;BME280;11581;51.250;6.778;2023-01-31T09:15:19;101861.94;;;8.32;67.27
22830;BME280;11581;51.250;6.778;2023-01-31T09:17:45;101857.91;;;8.26;67.63
22830;BME280;11581;51.250;6.778;2023-01-31T09:20:12;101846.09;;;8.30;67.54
22830;BME280;11581;51.250;6.778;2023-01-31T09:22:39;101857.69;;;8.29;68.01
22830;BME280;11581;51.250;6.778;2023-01-31T09:25:07;101857.50;;;8.32;68.37
22830;BME280;11581;51.250;6.778;2023-01-31T09:27:34;101854.63;;;8.35;68.23
22830;BME280;11581;51.250;6.778;2023-01-31T09:30:05;101873.84;;;8.39;68.14
22830;BME280;11581;51.250;6.778;2023-01-31T09:32:32;101856.00;;;8.41;68.22
22830;BME280;11581;51.250;6.778;2023-01-31T09:34:58;101857.56;;;8.43;68.41
22830;BME280;11581;51.250;6.778;2023-01-31T09:37:25;101850.16;;;8.48;68.14
22830;BME280;11581;51.250;6.778;2023-01-31T09:39:54;101846.41;;;8.51;68.11
22830;BME280;11581;51.250;6.778;2023-01-31T09:42:23;101852.38;;;8.54;67.94
22830;BME280;11581;51.250;6.778;2023-01-31T09:44:57;101855.66;;;8.58;67.89
22830;BME280;11581;51.250;6.778;2023-01-31T09:47:28;101837.56;;;8.50;67.83
22830;BME280;11581;51.250;6.778;2023-01-31T09:49:59;101843.75;;;8.63;67.70
22830;BME280;11581;51.250;6.778;2023-01-31T09:52:27;101857.66;;;8.67;68.12
22830;BME280;11581;51.250;6.778;2023-01-31T09:54:56;101850.31;;;8.70;67.94
22830;BME280;11581;51.250;6.778;2023-01-31T09:57:31;101854.34;;;8.76;67.16
22830;BME280;11581;51.250;6.778;2023-01-31T10:00:14;101844.47;;;8.78;67.13
22830;BME280;11581;51.250;6.778;2023-01-31T10:03:04;101844.09;;;8.82;66.86
22830;BME280;11581;51.250;6.778;2023-01-31T10:05:38;101841.97;;;8.87;67.45
22830;BME280;11581;51.250;6.778;2023-01-31T10:08:12;101844.31;;;8.92;67.47
22830;BME280;11581;51.250;6.778;2023-01-31T10:10:44;101835.91;;;8.98;67.87
22830;BME280;11581;51.250;6.778;2023-01-31T10:13:17;101835.44;;;9.04;67.99
22830;BME280;11581;51.250;6.778;2023-01-31T10:15:47;101823.50;;;9.09;67.80
22830;BME280;11581;51.250;6.778;2023-01-31T10:18:18;101786.53;;;8.94;67.81
22830;BME280;11581;51.250;6.778;2023-01-31T10:20:49;101814.97;;;9.17;67.66
22830;BME280;11581;51.250;6.778;2023-01-31T10:23:21;101812.19;;;9.19;67.61
22830;BME280;11581;51.250;6.778;2023-01-31T10:25:54;101806.22;;;9.15;67.58
22830;BME280;11581;51.250;6.778;2023-01-31T10:28:25;101791.16;;;9.03;67.39
22830;BME280;11581;51.250;6.778;2023-01-31T10:30:57;101782.00;;;9.07;67.42
22830;BME280;11581;51.250;6.778;2023-01-31T10:33:35;101762.59;;;8.94;67.29
22830;BME280;11581;51.250;6.778;2023-01-31T10:36:10;101775.59;;;9.09;67.80
22830;BME280;11581;51.250;6.778;2023-01-31T10:38:45;101750.56;;;8.88;67.78
22830;BME280;11581;51.250;6.778;2023-01-31T10:41:21;101783.25;;;9.14;67.72
22830;BME280;11581;51.250;6.778;2023-01-31T10:43:56;101754.59;;;8.94;68.37
22830;BME280;11581;51.250;6.778;2023-01-31T10:46:24;101774.59;;;9.23;68.42
22830;BME280;11581;51.250;6.778;2023-01-31T10:48:52;101776.16;;;9.26;68.19
22830;BME280;11581;51.250;6.778;2023-01-31T10:51:30;101779.53;;;9.28;67.92
22830;BME280;11581;51.250;6.778;2023-01-31T10:54:14;101769.53;;;9.31;68.16
22830;BME280;11581;51.250;6.778;2023-01-31T10:56:45;101769.28;;;9.34;68.29
22830;BME280;11581;51.250;6.778;2023-01-31T10:59:18;101752.34;;;9.35;68.18
22830;BME280;11581;51.250;6.778;2023-01-31T11:01:48;101760.09;;;9.38;68.55
22830;BME280;11581;51.250;6.778;2023-01-31T11:04:25;101759.88;;;9.41;68.02
22830;BME280;11581;51.250;6.778;2023-01-31T11:06:53;101771.16;;;9.45;68.45
22830;BME280;11581;51.250;6.778;2023-01-31T11:09:21;101765.47;;;9.49;68.40
22830;BME280;11581;51.250;6.778;2023-01-31T11:11:53;101777.72;;;9.52;67.90
22830;BME280;11581;51.250;6.778;2023-01-31T11:14:20;101759.53;;;9.57;68.30
22830;BME280;11581;51.250;6.778;2023-01-31T11:16:47;101738.56;;;9.41;67.94
22830;BME280;11581;51.250;6.778;2023-01-31T11:19:18;101757.28;;;9.63;67.54
22830;BME280;11581;51.250;6.778;2023-01-31T11:21:52;101742.75;;;9.56;67.30
22830;BME280;11581;51.250;6.778;2023-01-31T11:24:21;101756.19;;;9.66;67.68
22830;BME280;11581;51.250;6.778;2023-01-31T11:26:51;101690.84;;;9.27;67.33
22830;BME280;11581;51.250;6.778;2023-01-31T11:29:21;101746.28;;;9.68;67.36
22830;BME280;11581;51.250;6.778;2023-01-31T11:31:51;101724.84;;;9.69;67.56
22830;BME280;11581;51.250;6.778;2023-01-31T11:34:20;101720.34;;;9.70;67.36
22830;BME280;11581;51.250;6.778;2023-01-31T11:36:48;101730.88;;;9.71;67.45
22830;BME280;11581;51.250;6.778;2023-01-31T11:39:27;101726.53;;;9.70;66.82
22830;BME280;11581;51.250;6.778;2023-01-31T11:41:56;101657.19;;;9.26;67.24
22830;BME280;11581;51.250;6.778;2023-01-31T11:44:23;101696.47;;;9.46;67.33
22830;BME280;11581;51.250;6.778;2023-01-31T11:46:52;101726.53;;;9.70;67.24
22830;BME280;11581;51.250;6.778;2023-01-31T11:49:26;101720.75;;;9.76;67.20
22830;BME280;11581;51.250;6.778;2023-01-31T11:51:54;101706.91;;;9.71;67.39
22830;BME280;11581;51.250;6.778;2023-01-31T11:54:27;101704.50;;;9.79;67.24
22830;BME280;11581;51.250;6.778;2023-01-31T11:56:55;101694.59;;;9.81;67.52
22830;BME280;11581;51.250;6.778;2023-01-31T11:59:24;101542.34;;;8.97;67.50
22830;BME280;11581;51.250;6.778;2023-01-31T12:01:53;101689.75;;;9.86;67.66
22830;BME280;11581;51.250;6.778;2023-01-31T12:04:23;101680.66;;;9.89;67.52
22830;BME280;11581;51.250;6.778;2023-01-31T12:06:59;101665.75;;;9.75;67.39
22830;BME280;11581;51.250;6.778;2023-01-31T12:09:30;101684.41;;;9.97;67.40
22830;BME280;11581;51.250;6.778;2023-01-31T12:11:58;101677.63;;;9.93;67.69
22830;BME280;11581;51.250;6.778;2023-01-31T12:14:36;101694.56;;;10.03;67.03
22830;BME280;11581;51.250;6.778;2023-01-31T12:17:04;101694.38;;;10.06;67.38
22830;BME280;11581;51.250;6.778;2023-01-31T12:19:42;101685.44;;;10.07;67.03
22830;BME280;11581;51.250;6.778;2023-01-31T12:22:14;101695.09;;;10.08;67.01
22830;BME280;11581;51.250;6.778;2023-01-31T12:24:55;101684.44;;;10.08;67.02
22830;BME280;11581;51.250;6.778;2023-01-31T12:27:37;101697.53;;;10.11;66.97
22830;BME280;11581;51.250;6.778;2023-01-31T12:30:23;101635.13;;;9.81;66.95
22830;BME280;11581;51.250;6.778;2023-01-31T12:33:12;101675.59;;;10.08;66.66
22830;BME280;11581;51.250;6.778;2023-01-31T12:35:55;101686.88;;;10.11;66.83
22830;BME280;11581;51.250;6.778;2023-01-31T12:38:37;101679.84;;;10.10;67.04
22830;BME280;11581;51.250;6.778;2023-01-31T12:41:17;101676.44;;;10.08;66.85
22830;BME280;11581;51.250;6.778;2023-01-31T12:43:57;101678.25;;;10.08;66.99
22830;BME280;11581;51.250;6.778;2023-01-31T12:46:33;101658.97;;;10.04;67.28
22830;BME280;11581;51.250;6.778;2023-01-31T12:49:26;101658.78;;;10.07;67.21
22830;BME280;11581;51.250;6.778;2023-01-31T12:52:00;101652.91;;;10.13;67.59
22830;BME280;11581;51.250;6.778;2023-01-31T12:54:39;101659.00;;;10.15;67.42
22830;BME280;11581;51.250;6.778;2023-01-31T12:57:21;101652.69;;;10.16;67.11
22830;BME280;11581;51.250;6.778;2023-01-31T12:59:54;101637.44;;;10.07;67.38
22830;BME280;11581;51.250;6.778;2023-01-31T13:02:38;101663.09;;;10.19;67.06
22830;BME280;11581;51.250;6.778;2023-01-31T13:05:13;101651.47;;;10.20;67.34
22830;BME280;11581;51.250;6.778;2023-01-31T13:07:47;101587.78;;;9.73;67.34
22830;BME280;11581;51.250;6.778;2023-01-31T13:10:25;101623.84;;;10.21;67.18
22830;BME280;11581;51.250;6.778;2023-01-31T13:12:57;101664.69;;;10.22;67.30
22830;BME280;11581;51.250;6.778;2023-01-31T13:15:30;101659.34;;;10.22;67.09
22830;BME280;11581;51.250;6.778;2023-01-31T13:18:02;101648.81;;;10.20;67.40
22830;BME280;11581;51.250;6.778;2023-01-31T13:20:34;101650.75;;;10.18;67.64